sensor_id;sensor_type;location;lat;lon;timestamp;pressure;altitude;pressure_sealevel;temperature;humidity
9538;BME280;4807;48.024;11.726;2023-05-11T00:03:01;94770.16;;;8.28;88.69
9538;BME280;4807;48.024;11.726;2023-05-11T00:06:09;94763.69;;;8.31;89.09
9538;BME280;4807;48.024;11.726;2023-05-11T00:09:17;94767.31;;;8.30;89.07
9538;BME280;4807;48.024;11.726;2023-05-11T00:12:25;94766.06;;;8.26;89.27
9538;BME280;4807;48.024;11.726;2023-05-11T00:15:35;94761.69;;;8.33;88.84
9538;BME280;4807;48.024;11.726;2023-05-11T00:18:43;94768.47;;;8.21;89.20
9538;BME280;4807;48.024;11.726;2023-05-11T00:21:55;94764.81;;;8.22;89.87
9538;BME280;4807;48.024;11.726;2023-05-11T00:25:04;94755.47;;;8.26;89.81
9538;BME280;4807;48.024;11.726;2023-05-11T00:28:12;94758.31;;;8.24;89.29
9538;BME280;4807;48.024;11.726;2023-05-11T00:31:22;94761.72;;;8.39;89.64
9538;BME280;4807;48.024;11.726;2023-05-11T00:34:30;94753.09;;;8.31;89.60
9538;BME280;4807;48.024;11.726;2023-05-11T00:37:39;94750.47;;;8.37;89.41
9538;BME280;4807;48.024;11.726;2023-05-11T00:40:48;94757.53;;;8.30;89.47
9538;BME280;4807;48.024;11.726;2023-05-11T00:43:56;94744.94;;;8.32;89.22
9538;BME280;4807;48.024;11.726;2023-05-11T00:47:06;94742.41;;;8.24;89.28
9538;BME280;4807;48.024;11.726;2023-05-11T00:50:15;94747.50;;;8.26;89.74
9538;BME280;4807;48.024;11.726;2023-05-11T00:53:25;94744.63;;;8.42;88.49
9538;BME280;4807;48.024;11.726;2023-05-11T00:56:33;94746.09;;;8.30;88.75
9538;BME280;4807;48.024;11.726;2023-05-11T00:59:41;94752.00;;;8.25;89.06
9538;BME280;4807;48.024;11.726;2023-05-11T01:02:51;94748.13;;;8.28;88.36
9538;BME280;4807;48.024;11.726;2023-05-11T01:06:07;94748.53;;;8.25;89.12
9538;BME280;4807;48.024;11.726;2023-05-11T01:09:31;94750.28;;;8.18;89.73
9538;BME280;4807;48.024;11.726;2023-05-11T01:12:53;94742.47;;;8.31;89.39
9538;BME280;4807;48.024;11.726;2023-05-11T01:16:13;94744.13;;;8.32;88.03
9538;BME280;4807;48.024;11.726;2023-05-11T01:19:41;94747.28;;;8.27;88.59
9538;BME280;4807;48.024;11.726;2023-05-11T01:23:23;94749.06;;;8.20;89.33
9538;BME280;4807;48.024;11.726;2023-05-11T01:27:13;94743.34;;;8.17;89.40
9538;BME280;4807;48.024;11.726;2023-05-11T01:30:33;94741.84;;;8.08;88.93
9538;BME280;4807;48.024;11.726;2023-05-11T01:33:48;94737.47;;;8.21;88.66
9538;BME280;4807;48.024;11.726;2023-05-11T01:37:05;94741.34;;;8.19;89.10
9538;BME280;4807;48.024;11.726;2023-05-11T01:40:20;94738.19;;;8.09;89.21
9538;BME280;4807;48.024;11.726;2023-05-11T01:43:34;94746.63;;;8.19;88.75
9538;BME280;4807;48.024;11.726;2023-05-11T01:46:48;94738.72;;;8.25;87.79
9538;BME280;4807;48.024;11.726;2023-05-11T01:50:01;94744.34;;;8.16;89.19
9538;BME280;4807;48.024;11.726;2023-05-11T01:53:12;94740.19;;;8.07;88.94
9538;BME280;4807;48.024;11.726;2023-05-11T01:56:25;94741.34;;;8.19;88.67
9538;BME280;4807;48.024;11.726;2023-05-11T01:59:38;94739.06;;;8.16;88.69
9538;BME280;4807;48.024;11.726;2023-05-11T02:02:49;94739.31;;;7.99;88.82
9538;BME280;4807;48.024;11.726;2023-05-11T02:05:59;94739.88;;;8.16;88.26
9538;BME280;4807;48.024;11.726;2023-05-11T02:09:10;94732.88;;;8.09;88.74
9538;BME280;4807;48.024;11.726;2023-05-11T02:12:21;94731.38;;;7.99;88.31
9538;BME280;4807;48.024;11.726;2023-05-11T02:15:30;94728.34;;;8.02;88.81
9538;BME280;4807;48.024;11.726;2023-05-11T02:18:41;94728.34;;;8.02;88.44
9538;BME280;4807;48.024;11.726;2023-05-11T02:21:53;94726.81;;;8.15;88.93
9538;BME280;4807;48.024;11.726;2023-05-11T02:25:03;94723.41;;;7.99;88.75
9538;BME280;4807;48.024;11.726;2023-05-11T02:28:13;94729.97;;;8.03;88.67
9538;BME280;4807;48.024;11.726;2023-05-11T02:31:27;94727.44;;;7.95;88.77
9538;BME280;4807;48.024;11.726;2023-05-11T02:34:42;94727.84;;;7.92;88.16
9538;BME280;4807;48.024;11.726;2023-05-11T02:37:55;94724.31;;;7.85;88.55
9538;BME280;4807;48.024;11.726;2023-05-11T02:41:13;94726.06;;;7.78;89.19
9538;BME280;4807;48.024;11.726;2023-05-11T02:44:30;94726.97;;;7.85;89.33
9538;BME280;4807;48.024;11.726;2023-05-11T02:47:44;94725.00;;;7.94;88.71
9538;BME280;4807;48.024;11.726;2023-05-11T02:51:03;94731.16;;;7.80;89.01
9538;BME280;4807;48.024;11.726;2023-05-11T02:54:19;94727.81;;;7.71;88.88
9538;BME280;4807;48.024;11.726;2023-05-11T02:57:31;94723.16;;;7.73;89.50
9538;BME280;4807;48.024;11.726;2023-05-11T03:00:44;94722.22;;;7.81;89.97
9538;BME280;4807;48.024;11.726;2023-05-11T03:03:53;94720.38;;;7.81;89.33
9538;BME280;4807;48.024;11.726;2023-05-11T03:07:05;94714.53;;;7.86;88.85
9538;BME280;4807;48.024;11.726;2023-05-11T03:10:13;94713.38;;;7.74;89.11
9538;BME280;4807;48.024;11.726;2023-05-11T03:13:24;94708.53;;;7.77;89.28
9538;BME280;4807;48.024;11.726;2023-05-11T03:16:36;94715.50;;;7.63;89.18
9538;BME280;4807;48.024;11.726;2023-05-11T03:19:46;94714.78;;;7.70;89.78
9538;BME280;4807;48.024;11.726;2023-05-11T03:22:59;94705.19;;;7.69;89.39
9538;BME280;4807;48.024;11.726;2023-05-11T03:26:09;94710.47;;;7.69;88.87
9538;BME280;4807;48.024;11.726;2023-05-11T03:29:20;94702.84;;;7.59;90.08
9538;BME280;4807;48.024;11.726;2023-05-11T03:32:30;94709.59;;;7.61;90.01
9538;BME280;4807;48.024;11.726;2023-05-11T03:35:42;94704.72;;;7.65;89.63
9538;BME280;4807;48.024;11.726;2023-05-11T03:39:00;94698.28;;;7.74;89.63
9538;BME280;4807;48.024;11.726;2023-05-11T03:42:13;94696.28;;;7.76;87.97
9538;BME280;4807;48.024;11.726;2023-05-11T03:45:24;94696.41;;;7.68;88.48
9538;BME280;4807;48.024;11.726;2023-05-11T03:48:34;94703.59;;;7.53;88.96
9538;BME280;4807;48.024;11.726;2023-05-11T03:51:43;94695.91;;;7.58;89.21
9538;BME280;4807;48.024;11.726;2023-05-11T03:54:53;94689.88;;;7.71;88.52
9538;BME280;4807;48.024;11.726;2023-05-11T03:58:05;94697.41;;;7.67;87.99
9538;BME280;4807;48.024;11.726;2023-05-11T04:01:14;94689.59;;;7.59;89.25
9538;BME280;4807;48.024;11.726;2023-05-11T04:04:28;94695.31;;;7.41;88.96
9538;BME280;4807;48.024;11.726;2023-05-11T04:07:38;94684.66;;;7.56;89.46
9538;BME280;4807;48.024;11.726;2023-05-11T04:10:48;94683.72;;;7.42;90.05
9538;BME280;4807;48.024;11.726;2023-05-11T04:13:57;94683.66;;;7.57;88.60
9538;BME280;4807;48.024;11.726;2023-05-11T04:17:06;94684.22;;;7.52;89.13
9538;BME280;4807;48.024;11.726;2023-05-11T04:20:14;94687.06;;;7.51;88.93
9538;BME280;4807;48.024;11.726;2023-05-11T04:23:23;94686.88;;;7.52;88.99
9538;BME280;4807;48.024;11.726;2023-05-11T04:26:33;94680.56;;;7.53;88.81
9538;BME280;4807;48.024;11.726;2023-05-11T04:29:42;94686.47;;;7.55;88.58
9538;BME280;4807;48.024;11.726;2023-05-11T04:32:51;94687.31;;;7.56;88.24
9538;BME280;4807;48.024;11.726;2023-05-11T04:36:00;94692.38;;;7.51;89.07
9538;BME280;4807;48.024;11.726;2023-05-11T04:39:09;94697.22;;;7.69;87.96
9538;BME280;4807;48.024;11.726;2023-05-11T04:42:19;94690.22;;;7.61;88.26
9538;BME280;4807;48.024;11.726;2023-05-11T04:45:30;94694.00;;;7.52;88.88
9538;BME280;4807;48.024;11.726;2023-05-11T04:48:39;94693.69;;;7.61;88.61
9538;BME280;4807;48.024;11.726;2023-05-11T04:51:48;94697.41;;;7.67;87.65
9538;BME280;4807;48.024;11.726;2023-05-11T04:54:57;94695.25;;;7.56;88.82
9538;BME280;4807;48.024;11.726;2023-05-11T04:58:06;94694.59;;;7.69;87.93
9538;BME280;4807;48.024;11.726;2023-05-11T05:01:15;94699.81;;;7.62;87.71
9538;BME280;4807;48.024;11.726;2023-05-11T05:04:23;94700.94;;;7.53;88.32
9538;BME280;4807;48.024;11.726;2023-05-11T05:07:32;94699.31;;;7.52;87.67
9538;BME280;4807;48.024;11.726;2023-05-11T05:10:42;94697.66;;;7.51;87.97
9538;BME280;4807;48.024;11.726;2023-05-11T05:13:53;94703.72;;;7.66;87.70
9538;BME280;4807;48.024;11.726;2023-05-11T05:17:02;94712.56;;;7.73;87.20
9538;BME280;4807;48.024;11.726;2023-05-11T05:20:11;94708.50;;;7.56;87.47
9538;BME280;4807;48.024;11.726;2023-05-11T05:23:19;94702.72;;;7.67;87.52
9538;BME280;4807;48.024;11.726;2023-05-11T05:26:27;94695.00;;;7.72;87.25
9538;BME280;4807;48.024;11.726;2023-05-11T05:29:38;94708.91;;;7.74;87.59
9538;BME280;4807;48.024;11.726;2023-05-11T05:32:47;94704.94;;;7.85;87.09
9538;BME280;4807;48.024;11.726;2023-05-11T05:35:56;94708.91;;;7.74;86.89
9538;BME280;4807;48.024;11.726;2023-05-11T05:39:05;94714.19;;;7.74;87.63
9538;BME280;4807;48.024;11.726;2023-05-11T05:42:17;94719.03;;;7.71;87.14
9538;BME280;4807;48.024;11.726;2023-05-11T05:45:27;94712.50;;;7.66;87.06
9538;BME280;4807;48.024;11.726;2023-05-11T05:48:37;94717.34;;;7.63;87.42
9538;BME280;4807;48.024;11.726;2023-05-11T05:51:45;94715.47;;;7.78;87.08
9538;BME280;4807;48.024;11.726;2023-05-11T05:54:53;94719.94;;;7.78;87.62
9538;BME280;4807;48.024;11.726;2023-05-11T05:58:02;94721.91;;;7.69;87.68
9538;BME280;4807;48.024;11.726;2023-05-11T06:01:12;94715.91;;;7.60;87.82
9538;BME280;4807;48.024;11.726;2023-05-11T06:04:20;94712.94;;;7.70;86.99
9538;BME280;4807;48.024;11.726;2023-05-11T06:07:28;94713.97;;;7.69;87.99
9538;BME280;4807;48.024;11.726;2023-05-11T06:10:37;94723.91;;;7.67;87.49
9538;BME280;4807;48.024;11.726;2023-05-11T06:13:47;94722.72;;;7.70;87.40
9538;BME280;4807;48.024;11.726;2023-05-11T06:16:57;94722.03;;;7.82;86.92
9538;BME280;4807;48.024;11.726;2023-05-11T06:20:09;94726.56;;;7.88;86.60
9538;BME280;4807;48.024;11.726;2023-05-11T06:23:17;94727.44;;;7.74;86.84
9538;BME280;4807;48.024;11.726;2023-05-11T06:26:26;94722.78;;;7.76;87.94
9538;BME280;4807;48.024;11.726;2023-05-11T06:29:34;94729.47;;;7.93;86.84
9538;BME280;4807;48.024;11.726;2023-05-11T06:32:45;94733.25;;;8.05;86.67
9538;BME280;4807;48.024;11.726;2023-05-11T06:35:56;94732.38;;;7.98;86.46
9538;BME280;4807;48.024;11.726;2023-05-11T06:39:06;94732.47;;;8.12;86.17
9538;BME280;4807;48.024;11.726;2023-05-11T06:42:14;94729.41;;;7.87;87.14
9538;BME280;4807;48.024;11.726;2023-05-11T06:45:22;94728.03;;;7.91;86.24
9538;BME280;4807;48.024;11.726;2023-05-11T06:48:33;94732.38;;;7.98;86.86
9538;BME280;4807;48.024;11.726;2023-05-11T06:51:43;94726.63;;;7.95;86.57
9538;BME280;4807;48.024;11.726;2023-05-11T06:54:51;94730.22;;;7.87;86.39
9538;BME280;4807;48.024;11.726;2023-05-11T06:57:59;94729.41;;;7.87;86.61
9538;BME280;4807;48.024;11.726;2023-05-11T07:01:07;94729.22;;;7.88;86.64
9538;BME280;4807;48.024;11.726;2023-05-11T07:04:17;94729.41;;;7.87;86.63
9538;BME280;4807;48.024;11.726;2023-05-11T07:07:25;94730.41;;;8.07;85.98
9538;BME280;4807;48.024;11.726;2023-05-11T07:10:33;94731.59;;;8.04;85.81
9538;BME280;4807;48.024;11.726;2023-05-11T07:13:41;94735.06;;;8.05;85.27
9538;BME280;4807;48.024;11.726;2023-05-11T07:16:51;94733.69;;;7.88;86.20
9538;BME280;4807;48.024;11.726;2023-05-11T07:20:01;94735.50;;;7.87;86.59
9538;BME280;4807;48.024;11.726;2023-05-11T07:23:09;94736.91;;;8.04;85.80
9538;BME280;4807;48.024;11.726;2023-05-11T07:26:18;94737.22;;;8.37;85.09
9538;BME280;4807;48.024;11.726;2023-05-11T07:29:28;94735.19;;;8.67;84.53
9538;BME280;4807;48.024;11.726;2023-05-11T07:32:37;94736.66;;;8.76;83.98
9538;BME280;4807;48.024;11.726;2023-05-11T07:35:57;94723.78;;;9.08;83.17
9538;BME280;4807;48.024;11.726;2023-05-11T07:39:22;94736.22;;;9.48;82.44
9538;BME280;4807;48.024;11.726;2023-05-11T07:42:30;94730.38;;;9.25;81.16
9538;BME280;4807;48.024;11.726;2023-05-11T07:45:39;94729.81;;;8.89;82.61
9538;BME280;4807;48.024;11.726;2023-05-11T07:48:47;94730.69;;;9.02;82.67
9538;BME280;4807;48.024;11.726;2023-05-11T07:52:05;94742.06;;;8.90;83.42
9538;BME280;4807;48.024;11.726;2023-05-11T07:55:13;94733.59;;;9.07;82.60
9538;BME280;4807;48.024;11.726;2023-05-11T07:58:21;94729.44;;;9.39;81.80
9538;BME280;4807;48.024;11.726;2023-05-11T08:01:29;94732.09;;;9.39;81.68
9538;BME280;4807;48.024;11.726;2023-05-11T08:04:38;94732.22;;;9.79;80.88
9538;BME280;4807;48.024;11.726;2023-05-11T08:07:48;94729.56;;;9.92;79.81
9538;BME280;4807;48.024;11.726;2023-05-11T08:10:56;94729.13;;;9.82;80.40
9538;BME280;4807;48.024;11.726;2023-05-11T08:14:04;94733.28;;;9.30;80.80
9538;BME280;4807;48.024;11.726;2023-05-11T08:17:12;94730.09;;;9.48;81.50
9538;BME280;4807;48.024;11.726;2023-05-11T08:20:21;94731.16;;;9.67;81.25
9538;BME280;4807;48.024;11.726;2023-05-11T08:23:31;94732.59;;;9.63;81.21
9538;BME280;4807;48.024;11.726;2023-05-11T08:26:39;94731.03;;;10.01;80.61
9538;BME280;4807;48.024;11.726;2023-05-11T08:29:47;94720.34;;;9.81;80.08
9538;BME280;4807;48.024;11.726;2023-05-11T08:32:55;94725.25;;;9.78;80.28
9538;BME280;4807;48.024;11.726;2023-05-11T08:36:06;94718.16;;;10.05;79.99
9538;BME280;4807;48.024;11.726;2023-05-11T08:39:16;94720.97;;;9.77;80.34
9538;BME280;4807;48.024;11.726;2023-05-11T08:42:54;94719.81;;;10.19;79.28
9538;BME280;4807;48.024;11.726;2023-05-11T08:46:08;94714.06;;;10.15;79.33
9538;BME280;4807;48.024;11.726;2023-05-11T08:49:18;94714.31;;;10.33;78.90
9538;BME280;4807;48.024;11.726;2023-05-11T08:52:26;94719.13;;;10.96;78.15
9538;BME280;4807;48.024;11.726;2023-05-11T08:55:37;94717.41;;;11.21;77.20
9538;BME280;4807;48.024;11.726;2023-05-11T08:58:51;94713.78;;;11.60;75.58
9538;BME280;4807;48.024;11.726;2023-05-11T09:02:03;94720.63;;;11.36;75.06
9538;BME280;4807;48.024;11.726;2023-05-11T09:05:13;94713.22;;;11.45;76.32
9538;BME280;4807;48.024;11.726;2023-05-11T09:08:33;94704.94;;;11.66;74.77
9538;BME280;4807;48.024;11.726;2023-05-11T09:11:43;94717.25;;;11.67;74.54
9538;BME280;4807;48.024;11.726;2023-05-11T09:14:52;94713.59;;;11.11;74.59
9538;BME280;4807;48.024;11.726;2023-05-11T09:18:00;94721.06;;;11.40;74.98
9538;BME280;4807;48.024;11.726;2023-05-11T09:21:11;94714.19;;;12.02;73.87
9538;BME280;4807;48.024;11.726;2023-05-11T09:24:19;94712.44;;;11.89;73.79
9538;BME280;4807;48.024;11.726;2023-05-11T09:27:29;94719.34;;;11.59;74.61
9538;BME280;4807;48.024;11.726;2023-05-11T09:30:38;94713.19;;;11.00;75.80
9538;BME280;4807;48.024;11.726;2023-05-11T09:33:46;94717.84;;;11.25;74.58
9538;BME280;4807;48.024;11.726;2023-05-11T09:36:56;94710.28;;;11.60;74.99
9538;BME280;4807;48.024;11.726;2023-05-11T09:40:05;94712.13;;;11.15;75.73
9538;BME280;4807;48.024;11.726;2023-05-11T09:43:33;94716.22;;;11.17;75.87
9538;BME280;4807;48.024;11.726;2023-05-11T09:46:44;94711.94;;;11.03;75.68
9538;BME280;4807;48.024;11.726;2023-05-11T09:49:58;94714.22;;;10.99;75.57
9538;BME280;4807;48.024;11.726;2023-05-11T09:53:07;94708.94;;;10.73;76.48
9538;BME280;4807;48.024;11.726;2023-05-11T09:56:16;94705.88;;;10.56;77.28
9538;BME280;4807;48.024;11.726;2023-05-11T09:59:39;94713.84;;;10.63;77.78
9538;BME280;4807;48.024;11.726;2023-05-11T10:02:59;94719.81;;;10.78;77.07
9538;BME280;4807;48.024;11.726;2023-05-11T10:06:09;94713.28;;;10.41;77.04
9538;BME280;4807;48.024;11.726;2023-05-11T10:09:22;94707.75;;;10.29;78.27
9538;BME280;4807;48.024;11.726;2023-05-11T10:12:33;94705.31;;;10.21;78.84
9538;BME280;4807;48.024;11.726;2023-05-11T10:15:48;94714.69;;;10.04;79.11
9538;BME280;4807;48.024;11.726;2023-05-11T10:18:58;94713.69;;;10.18;79.54
9538;BME280;4807;48.024;11.726;2023-05-11T10:22:09;94708.56;;;10.30;79.35
9538;BME280;4807;48.024;11.726;2023-05-11T10:25:20;94716.16;;;10.53;78.30
9538;BME280;4807;48.024;11.726;2023-05-11T10:28:29;94706.72;;;10.70;79.31
9538;BME280;4807;48.024;11.726;2023-05-11T10:31:40;94711.81;;;10.78;78.26
9538;BME280;4807;48.024;11.726;2023-05-11T10:34:49;94717.91;;;10.98;78.08
9538;BME280;4807;48.024;11.726;2023-05-11T10:37:59;94709.06;;;11.04;77.07
9538;BME280;4807;48.024;11.726;2023-05-11T10:41:25;94707.06;;;10.80;77.86
9538;BME280;4807;48.024;11.726;2023-05-11T10:45:15;94706.88;;;10.82;78.72
9538;BME280;4807;48.024;11.726;2023-05-11T10:52:21;94700.25;;;11.04;76.61
9538;BME280;4807;48.024;11.726;2023-05-11T10:55:56;94692.75;;;11.39;76.24
9538;BME280;4807;48.024;11.726;2023-05-11T10:59:27;94694.84;;;11.68;76.06
9538;BME280;4807;48.024;11.726;2023-05-11T11:02:39;94701.63;;;12.09;74.82
9538;BME280;4807;48.024;11.726;2023-05-11T11:05:47;94699.47;;;11.93;74.36
9538;BME280;4807;48.024;11.726;2023-05-11T11:09:00;94695.19;;;12.16;74.39
9538;BME280;4807;48.024;11.726;2023-05-11T11:12:09;94703.91;;;12.05;74.73
9538;BME280;4807;48.024;11.726;2023-05-11T11:15:18;94699.03;;;11.96;74.77
9538;BME280;4807;48.024;11.726;2023-05-11T11:18:28;94694.94;;;11.93;75.05
9538;BME280;4807;48.024;11.726;2023-05-11T11:21:41;94696.13;;;12.04;74.25
9538;BME280;4807;48.024;11.726;2023-05-11T11:24:52;94693.81;;;11.76;73.87
9538;BME280;4807;48.024;11.726;2023-05-11T11:28:00;94699.63;;;11.60;75.13
9538;BME280;4807;48.024;11.726;2023-05-11T11:31:25;94700.03;;;11.19;75.76
9538;BME280;4807;48.024;11.726;2023-05-11T11:34:34;94695.72;;;11.18;75.27
9538;BME280;4807;48.024;11.726;2023-05-11T11:38:02;94696.84;;;11.41;75.33
9538;BME280;4807;48.024;11.726;2023-05-11T11:41:27;94695.88;;;11.29;75.95
9538;BME280;4807;48.024;11.726;2023-05-11T11:44:38;94700.81;;;11.26;76.17
9538;BME280;4807;48.024;11.726;2023-05-11T11:48:15;94700.34;;;11.42;76.42
9538;BME280;4807;48.024;11.726;2023-05-11T11:51:32;94697.91;;;11.27;76.17
9538;BME280;4807;48.024;11.726;2023-05-11T11:54:46;94697.94;;;11.21;75.55
9538;BME280;4807;48.024;11.726;2023-05-11T11:57:55;94698.63;;;11.09;75.59
9538;BME280;4807;48.024;11.726;2023-05-11T12:01:05;94699.31;;;11.43;76.11
9538;BME280;4807;48.024;11.726;2023-05-11T12:04:51;94704.78;;;11.10;75.73
9538;BME280;4807;48.024;11.726;2023-05-11T12:08:05;94698.63;;;11.09;77.32
9538;BME280;4807;48.024;11.726;2023-05-11T12:11:17;94695.16;;;11.02;77.03
9538;BME280;4807;48.024;11.726;2023-05-11T12:14:27;94690.63;;;11.09;77.01
9538;BME280;4807;48.024;11.726;2023-05-11T12:17:37;94689.38;;;11.19;77.63
9538;BME280;4807;48.024;11.726;2023-05-11T12:20:46;94691.41;;;11.17;77.95
9538;BME280;4807;48.024;11.726;2023-05-11T12:23:58;94684.25;;;11.17;75.90
9538;BME280;4807;48.024;11.726;2023-05-11T12:27:07;94687.25;;;11.34;77.08
9538;BME280;4807;48.024;11.726;2023-05-11T12:30:21;94687.44;;;11.39;75.86
9538;BME280;4807;48.024;11.726;2023-05-11T12:33:29;94686.03;;;11.30;75.94
9538;BME280;4807;48.024;11.726;2023-05-11T12:36:38;94690.22;;;11.57;75.33
9538;BME280;4807;48.024;11.726;2023-05-11T12:39:53;94679.34;;;11.59;76.10
9538;BME280;4807;48.024;11.726;2023-05-11T12:43:01;94685.00;;;11.31;76.68
9538;BME280;4807;48.024;11.726;2023-05-11T12:46:11;94679.03;;;10.84;76.52
9538;BME280;4807;48.024;11.726;2023-05-11T12:49:22;94682.91;;;10.82;77.23
9538;BME280;4807;48.024;11.726;2023-05-11T12:52:33;94683.72;;;10.82;77.89
9538;BME280;4807;48.024;11.726;2023-05-11T12:55:41;94673.72;;;10.78;78.07
9538;BME280;4807;48.024;11.726;2023-05-11T12:58:51;94670.84;;;10.66;77.81
9538;BME280;4807;48.024;11.726;2023-05-11T13:02:10;94673.31;;;10.54;78.48
9538;BME280;4807;48.024;11.726;2023-05-11T13:05:24;94673.28;;;10.74;78.13
9538;BME280;4807;48.024;11.726;2023-05-11T13:08:32;94667.72;;;10.89;77.40
9538;BME280;4807;48.024;11.726;2023-05-11T13:11:41;94661.56;;;10.88;77.82
9538;BME280;4807;48.024;11.726;2023-05-11T13:15:05;94664.06;;;10.83;77.28
9538;BME280;4807;48.024;11.726;2023-05-11T13:18:16;94652.41;;;10.78;77.89
9538;BME280;4807;48.024;11.726;2023-05-11T13:21:24;94662.25;;;10.64;78.33
9538;BME280;4807;48.024;11.726;2023-05-11T13:24:33;94663.06;;;10.64;79.18
9538;BME280;4807;48.024;11.726;2023-05-11T13:27:41;94654.03;;;10.79;77.95
9538;BME280;4807;48.024;11.726;2023-05-11T13:30:50;94653.97;;;10.98;79.16
9538;BME280;4807;48.024;11.726;2023-05-11T13:34:00;94658.09;;;10.94;78.65
9538;BME280;4807;48.024;11.726;2023-05-11T13:37:08;94653.56;;;11.01;79.39
9538;BME280;4807;48.024;11.726;2023-05-11T13:40:17;94660.16;;;10.92;79.21
9538;BME280;4807;48.024;11.726;2023-05-11T13:43:26;94655.06;;;10.84;78.91
9538;BME280;4807;48.024;11.726;2023-05-11T13:46:35;94665.03;;;10.95;79.05
9538;BME280;4807;48.024;11.726;2023-05-11T13:49:45;94658.06;;;11.01;79.33
9538;BME280;4807;48.024;11.726;2023-05-11T13:52:53;94662.59;;;10.87;80.14
9538;BME280;4807;48.024;11.726;2023-05-11T13:56:03;94659.19;;;10.67;80.06
9538;BME280;4807;48.024;11.726;2023-05-11T13:59:11;94663.25;;;10.76;80.55
9538;BME280;4807;48.024;11.726;2023-05-11T14:02:20;94653.03;;;10.66;80.37
9538;BME280;4807;48.024;11.726;2023-05-11T14:05:30;94650.53;;;10.85;80.30
9538;BME280;4807;48.024;11.726;2023-05-11T14:08:38;94647.38;;;11.07;80.11
9538;BME280;4807;48.024;11.726;2023-05-11T14:11:47;94646.25;;;10.84;79.85
9538;BME280;4807;48.024;11.726;2023-05-11T14:14:57;94644.59;;;10.83;80.17
9538;BME280;4807;48.024;11.726;2023-05-11T14:18:05;94648.00;;;11.03;79.57
9538;BME280;4807;48.024;11.726;2023-05-11T14:21:15;94653.44;;;10.77;78.96
9538;BME280;4807;48.024;11.726;2023-05-11T14:24:24;94654.03;;;10.79;80.09
9538;BME280;4807;48.024;11.726;2023-05-11T14:27:32;94644.22;;;10.66;79.72
9538;BME280;4807;48.024;11.726;2023-05-11T14:30:40;94644.19;;;10.79;79.57
9538;BME280;4807;48.024;11.726;2023-05-11T14:33:49;94647.09;;;10.64;79.56
9538;BME280;4807;48.024;11.726;2023-05-11T14:36:59;94641.84;;;10.45;80.48
9538;BME280;4807;48.024;11.726;2023-05-11T14:40:08;94647.75;;;10.47;80.92
9538;BME280;4807;48.024;11.726;2023-05-11T14:43:17;94647.75;;;10.47;81.66
9538;BME280;4807;48.024;11.726;2023-05-11T14:46:25;94643.47;;;10.46;82.04
9538;BME280;4807;48.024;11.726;2023-05-11T14:49:33;94645.13;;;10.33;81.90
9538;BME280;4807;48.024;11.726;2023-05-11T14:52:43;94644.66;;;10.56;81.21
9538;BME280;4807;48.024;11.726;2023-05-11T14:55:51;94639.38;;;10.37;81.21
9538;BME280;4807;48.024;11.726;2023-05-11T14:58:59;94640.19;;;10.30;82.41
9538;BME280;4807;48.024;11.726;2023-05-11T15:02:08;94639.53;;;10.68;81.30
9538;BME280;4807;48.024;11.726;2023-05-11T15:05:16;94643.03;;;10.55;80.75
9538;BME280;4807;48.024;11.726;2023-05-11T15:08:26;94641.03;;;10.24;81.70
9538;BME280;4807;48.024;11.726;2023-05-11T15:11:36;94634.06;;;10.10;82.72
9538;BME280;4807;48.024;11.726;2023-05-11T15:14:45;94640.41;;;10.22;82.39
9538;BME280;4807;48.024;11.726;2023-05-11T15:17:53;94642.66;;;10.25;82.95
9538;BME280;4807;48.024;11.726;2023-05-11T15:21:01;94641.44;;;10.35;81.73
9538;BME280;4807;48.024;11.726;2023-05-11T15:24:12;94643.06;;;10.42;82.92
9538;BME280;4807;48.024;11.726;2023-05-11T15:27:20;94656.13;;;10.57;82.57
9538;BME280;4807;48.024;11.726;2023-05-11T15:30:28;94659.56;;;10.70;81.76
9538;BME280;4807;48.024;11.726;2023-05-11T15:33:38;94648.72;;;10.72;82.11
9538;BME280;4807;48.024;11.726;2023-05-11T15:36:47;94648.09;;;10.77;81.25
9538;BME280;4807;48.024;11.726;2023-05-11T15:39:57;94651.38;;;10.72;81.62
9538;BME280;4807;48.024;11.726;2023-05-11T15:43:06;94659.44;;;10.46;82.39
9538;BME280;4807;48.024;11.726;2023-05-11T15:46:14;94653.47;;;10.57;81.97
9538;BME280;4807;48.024;11.726;2023-05-11T15:49:23;94659.22;;;10.41;81.39
9538;BME280;4807;48.024;11.726;2023-05-11T15:52:31;94658.63;;;10.45;81.66
9538;BME280;4807;48.024;11.726;2023-05-11T15:55:41;94660.28;;;10.26;82.71
9538;BME280;4807;48.024;11.726;2023-05-11T15:58:52;94661.91;;;10.34;81.87
9538;BME280;4807;48.024;11.726;2023-05-11T16:02:00;94663.13;;;10.31;82.99
9538;BME280;4807;48.024;11.726;2023-05-11T16:05:09;94665.56;;;10.46;82.18
9538;BME280;4807;48.024;11.726;2023-05-11T16:08:17;94665.16;;;10.49;82.42
9538;BME280;4807;48.024;11.726;2023-05-11T16:11:27;94659.84;;;10.43;82.57
9538;BME280;4807;48.024;11.726;2023-05-11T16:14:35;94652.88;;;10.48;82.26
9538;BME280;4807;48.024;11.726;2023-05-11T16:17:43;94662.72;;;10.41;82.67
9538;BME280;4807;48.024;11.726;2023-05-11T16:20:52;94661.28;;;10.25;82.87
9538;BME280;4807;48.024;11.726;2023-05-11T16:24:00;94657.00;;;10.38;82.42
9538;BME280;4807;48.024;11.726;2023-05-11T16:27:10;94653.72;;;10.29;82.97
9538;BME280;4807;48.024;11.726;2023-05-11T16:30:18;94658.44;;;10.27;82.47
9538;BME280;4807;48.024;11.726;2023-05-11T16:33:31;94651.47;;;10.26;82.16
9538;BME280;4807;48.024;11.726;2023-05-11T16:36:40;94650.44;;;10.27;82.45
9538;BME280;4807;48.024;11.726;2023-05-11T16:39:49;94646.31;;;10.51;81.83
9538;BME280;4807;48.024;11.726;2023-05-11T16:42:59;94640.41;;;10.22;82.50
9538;BME280;4807;48.024;11.726;2023-05-11T16:46:08;94645.13;;;10.33;81.96
9538;BME280;4807;48.024;11.726;2023-05-11T16:49:16;94640.19;;;10.30;82.11
9538;BME280;4807;48.024;11.726;2023-05-11T16:52:25;94638.78;;;10.35;82.05
9538;BME280;4807;48.024;11.726;2023-05-11T16:55:34;94639.19;;;10.12;82.17
9538;BME280;4807;48.024;11.726;2023-05-11T16:58:43;94632.41;;;10.16;82.56
9538;BME280;4807;48.024;11.726;2023-05-11T17:01:51;94634.88;;;10.37;81.21
9538;BME280;4807;48.024;11.726;2023-05-11T17:05:00;94633.84;;;10.31;80.75
9538;BME280;4807;48.024;11.726;2023-05-11T17:08:08;94636.50;;;10.31;81.13
9538;BME280;4807;48.024;11.726;2023-05-11T17:11:17;94623.63;;;10.22;81.32
9538;BME280;4807;48.024;11.726;2023-05-11T17:14:27;94634.06;;;10.37;79.79
9538;BME280;4807;48.024;11.726;2023-05-11T17:17:35;94633.63;;;10.40;79.91
9538;BME280;4807;48.024;11.726;2023-05-11T17:20:49;94628.94;;;10.42;80.17